Time;durP1;ratioP1;P1;durP2;ratioP2;P2;SDS_P1;SDS_P2;PMS_P1;PMS_P2;Temp;Humidity;BMP_temperature;BMP_pressure;BME280_temperature;BME280_humidity;BME280_pressure;Samples;Min_cycle;Max_cycle;Signal;HPM_P1;HPM_P2
2022/06/10 00:01:13;;;;;;;11.75;3.88;;;19.30;64.90;;;;;;5061818;28;20067;-72
2022/06/10 00:03:39;;;;;;;26.75;5.38;;;19.20;64.70;;;;;;5074102;28;20508;-72
2022/06/10 00:06:07;;;;;;;10.90;3.92;;;19.20;64.80;;;;;;5046360;28;20028;-72
2022/06/10 00:08:37;;;;;;;10.88;3.83;;;19.20;64.90;;;;;;5060014;28;20071;-71
2022/06/10 00:11:07;;;;;;;12.32;4.05;;;19.10;64.70;;;;;;5058799;28;20028;-71
2022/06/10 00:13:36;;;;;;;10.77;3.70;;;19.10;64.80;;;;;;5064015;28;20036;-71
2022/06/10 00:16:02;;;;;;;9.80;2.97;;;19.10;64.80;;;;;;5056756;28;20039;-72
2022/06/10 00:18:30;;;;;;;16.75;5.35;;;19.10;64.80;;;;;;5066481;28;20456;-71
2022/06/10 00:20:58;;;;;;;6.30;3.30;;;19.00;64.70;;;;;;5058401;28;20270;-72
2022/06/10 00:23:25;;;;;;;11.73;3.80;;;19.00;64.80;;;;;;5063871;28;20493;-73
2022/06/10 00:25:50;;;;;;;12.30;4.18;;;19.00;64.80;;;;;;5053711;28;20493;-72
2022/06/10 00:28:17;;;;;;;10.20;3.20;;;18.90;64.70;;;;;;5054880;28;20156;-73
2022/06/10 00:30:43;;;;;;;12.75;3.80;;;18.90;64.80;;;;;;5063451;28;20036;-74
2022/06/10 00:33:09;;;;;;;13.07;3.80;;;18.90;64.80;;;;;;5064645;28;20028;-73
2022/06/10 00:35:36;;;;;;;11.27;4.05;;;18.90;64.80;;;;;;5057708;28;20033;-73
2022/06/10 00:38:03;;;;;;;12.05;4.18;;;18.80;64.70;;;;;;5071826;28;20399;-73
2022/06/10 00:40:32;;;;;;;9.93;3.92;;;18.80;64.70;;;;;;5060608;28;20032;-72
2022/06/10 00:42:58;;;;;;;11.98;4.07;;;18.80;64.70;;;;;;5061647;28;20036;-71
2022/06/10 00:45:52;;;;;;;14.27;5.75;;;18.80;64.70;;;;;;5052041;28;20035;-72
2022/06/10 00:48:24;;;;;;;10.48;3.40;;;18.80;64.90;;;;;;5063144;28;20386;-73
2022/06/10 00:50:51;;;;;;;9.32;3.85;;;18.70;64.60;;;;;;5046222;28;20020;-72
2022/06/10 00:53:21;;;;;;;10.43;3.53;;;18.70;64.70;;;;;;5064421;28;20043;-72
2022/06/10 00:55:49;;;;;;;7.43;3.78;;;18.70;64.70;;;;;;5055782;28;20734;-74
2022/06/10 00:58:40;;;;;;;11.88;4.95;;;18.70;64.80;;;;;;5068342;28;20032;-72
2022/06/10 01:01:07;;;;;;;11.70;3.88;;;18.70;64.90;;;;;;5071980;28;20052;-71
2022/06/10 01:03:34;;;;;;;9.75;4.43;;;18.70;64.80;;;;;;5067878;28;20028;-72
2022/06/10 01:06:00;;;;;;;9.68;3.58;;;18.70;64.80;;;;;;5067391;28;20033;-73
2022/06/10 01:08:26;;;;;;;13.43;4.38;;;18.60;64.70;;;;;;5067184;28;20040;-72
2022/06/10 01:11:13;;;;;;;15.13;4.10;;;18.60;65.20;;;;;;5065577;28;20024;-73
2022/06/10 01:14:05;;;;;;;12.73;4.30;;;18.60;64.90;;;;;;5066275;28;20817;-72
2022/06/10 01:16:58;;;;;;;9.95;3.92;;;18.60;64.90;;;;;;5058870;28;20043;-71
2022/06/10 01:20:01;;;;;;;11.85;4.38;;;18.60;64.90;;;;;;5061585;28;20025;-72
2022/06/10 01:22:54;;;;;;;9.30;3.58;;;18.60;64.90;;;;;;5059226;28;20531;-72
2022/06/10 01:25:48;;;;;;;10.70;3.35;;;18.60;64.90;;;;;;5047531;28;20391;-72
2022/06/10 01:28:44;;;;;;;11.98;4.60;;;18.50;64.70;;;;;;5062850;28;20028;-74
2022/06/10 01:31:36;;;;;;;13.82;3.97;;;18.50;64.80;;;;;;5059691;28;20024;-71
2022/06/10 01:34:06;;;;;;;10.60;3.67;;;18.50;64.70;;;;;;5069255;28;20036;-73
2022/06/10 01:36:52;;;;;;;12.82;3.92;;;18.50;64.80;;;;;;5066674;28;20063;-72
2022/06/10 01:39:43;;;;;;;11.02;3.97;;;18.50;64.90;;;;;;5050014;28;20151;-73
2022/06/10 01:42:28;;;;;;;16.00;3.88;;;18.50;65.00;;;;;;5038392;28;20304;-73
2022/06/10 01:45:16;;;;;;;14.40;3.78;;;18.40;65.30;;;;;;5065698;28;20129;-72
2022/06/10 01:47:48;;;;;;;15.18;6.00;;;18.40;64.80;;;;;;5074530;28;20181;-72
2022/06/10 01:50:21;;;;;;;12.40;4.20;;;18.40;64.90;;;;;;5077934;28;20043;-73
2022/06/10 01:53:02;;;;;;;17.55;5.25;;;18.40;64.90;;;;;;5057536;28;20402;-74
2022/06/10 01:55:54;;;;;;;9.95;3.47;;;18.30;64.80;;;;;;5068167;28;20040;-72
2022/06/10 01:58:44;;;;;;;10.88;3.40;;;18.30;64.90;;;;;;5058843;28;20043;-72
2022/06/10 02:01:18;;;;;;;13.60;4.68;;;18.20;64.80;;;;;;5061292;28;20051;-72
2022/06/10 02:03:55;;;;;;;11.50;3.83;;;18.30;64.90;;;;;;5064094;28;21271;-72
2022/06/10 02:06:28;;;;;;;11.70;3.90;;;18.20;64.90;;;;;;5054635;28;20028;-73
2022/06/10 02:08:56;;;;;;;;;;;18.20;64.90;;;;;;5073992;28;20058;-73
2022/06/10 02:11:28;;;;;;;12.43;3.85;;;18.20;64.90;;;;;;5059805;28;19920;-73
2022/06/10 02:14:15;;;;;;;16.10;5.20;;;18.10;64.60;;;;;;5068070;28;20048;-72
2022/06/10 02:16:45;;;;;;;15.40;4.40;;;18.10;64.90;;;;;;5063053;28;20079;-72
2022/06/10 02:19:50;;;;;;;17.63;5.13;;;18.00;64.70;;;;;;5063997;28;20402;-72
2022/06/10 02:22:24;;;;;;;11.00;4.18;;;18.00;64.90;;;;;;5044712;28;20041;-74
2022/06/10 02:24:59;;;;;;;11.65;2.92;;;18.00;64.90;;;;;;5060463;28;20144;-73
2022/06/10 02:27:31;;;;;;;14.52;4.10;;;18.00;64.90;;;;;;5052829;28;20025;-73
2022/06/10 02:30:09;;;;;;;12.00;4.00;;;18.00;65.00;;;;;;5063221;28;20033;-75
2022/06/10 02:32:39;;;;;;;13.25;3.90;;;18.00;65.10;;;;;;5067776;28;20048;-73
2022/06/10 02:35:07;;;;;;;11.93;3.53;;;17.90;64.90;;;;;;5060309;28;20043;-73
2022/06/10 02:37:51;;;;;;;15.32;4.65;;;17.90;65.00;;;;;;5059617;28;20028;-72
2022/06/10 02:40:29;;;;;;;14.45;3.45;;;17.90;65.10;;;;;;5063502;28;20028;-73
2022/06/10 02:43:11;;;;;;;6.93;2.88;;;17.80;65.00;;;;;;5055837;28;20116;-72
2022/06/10 02:45:52;;;;;;;12.52;4.80;;;17.80;65.00;;;;;;5062572;28;20060;-72
2022/06/10 02:48:32;;;;;;;12.60;3.25;;;17.80;65.00;;;;;;5065845;28;20048;-71
2022/06/10 02:50:59;;;;;;;11.23;4.20;;;17.80;65.10;;;;;;5069527;28;20127;-72
2022/06/10 02:53:25;;;;;;;12.43;4.30;;;17.70;64.90;;;;;;5071191;28;20024;-73
2022/06/10 02:55:51;;;;;;;12.40;4.05;;;17.70;65.00;;;;;;5070918;28;20049;-73
2022/06/10 03:01:30;;;;;;;12.15;4.15;;;17.70;65.20;;;;;;5076284;28;20463;-72
2022/06/10 03:04:16;;;;;;;12.48;3.90;;;17.60;65.60;;;;;;5070840;28;20112;-74
2022/06/10 03:06:54;;;;;;;12.38;3.50;;;17.60;65.20;;;;;;5095260;28;20008;-72
2022/06/10 03:09:58;;;;;;;16.45;4.40;;;17.60;65.20;;;;;;5080601;28;20105;-73
2022/06/10 03:12:34;;;;;;;11.50;3.63;;;17.50;65.00;;;;;;5079438;28;20140;-73
2022/06/10 03:15:05;;;;;;;16.27;3.92;;;17.50;65.60;;;;;;5077815;28;20079;-71
2022/06/10 03:17:40;;;;;;;10.57;3.72;;;17.50;65.00;;;;;;5045015;28;20017;-71
2022/06/10 03:20:20;;;;;;;11.05;3.25;;;17.40;65.00;;;;;;5059421;28;20088;-73
2022/06/10 03:23:12;;;;;;;8.43;3.30;;;17.40;65.20;;;;;;5063625;28;20060;-73
2022/06/10 03:25:55;;;;;;;12.00;3.50;;;17.40;65.80;;;;;;5055618;28;20061;-73
2022/06/10 03:28:41;;;;;;;12.95;4.65;;;17.40;65.30;;;;;;5056702;28;20186;-73
2022/06/10 03:31:16;;;;;;;9.63;3.90;;;17.30;65.00;;;;;;5067989;28;20104;-72
2022/06/10 03:33:54;;;;;;;16.63;4.63;;;17.40;65.30;;;;;;5063589;28;20120;-72
2022/06/10 03:36:23;;;;;;;12.07;4.32;;;17.30;65.10;;;;;;5057403;28;20832;-73
2022/06/10 03:38:50;;;;;;;8.98;3.60;;;17.30;65.10;;;;;;5049350;28;20078;-73
2022/06/10 03:41:28;;;;;;;11.05;3.10;;;17.30;65.20;;;;;;5064124;28;20646;-73
2022/06/10 03:43:57;;;;;;;10.10;2.80;;;17.30;65.30;;;;;;5055046;28;20025;-73
2022/06/10 03:46:26;;;;;;;10.93;3.95;;;17.30;65.30;;;;;;5061737;28;20028;-72
2022/06/10 03:48:54;;;;;;;10.10;3.25;;;17.20;65.10;;;;;;5058289;28;20052;-72
2022/06/10 03:51:21;;;;;;;11.93;4.30;;;17.20;65.10;;;;;;5071042;28;20097;-72
2022/06/10 03:53:49;;;;;;;10.63;4.55;;;17.30;65.40;;;;;;5059636;28;20040;-72
2022/06/10 03:56:24;;;;;;;12.38;3.92;;;17.20;65.20;;;;;;5057681;28;20033;-72
2022/06/10 03:58:52;;;;;;;12.30;3.53;;;17.20;65.30;;;;;;5064191;28;20341;-72
2022/06/10 04:01:18;;;;;;;12.50;4.00;;;17.20;65.30;;;;;;5071350;28;20032;-72
2022/06/10 04:03:43;;;;;;;16.40;4.63;;;17.20;65.30;;;;;;5044917;28;20117;-73
2022/06/10 04:06:10;;;;;;;12.32;4.43;;;17.20;65.30;;;;;;5062797;28;20486;-72
2022/06/10 04:08:36;;;;;;;11.38;3.35;;;17.20;65.40;;;;;;5045306;28;20028;-73
2022/06/10 04:11:02;;;;;;;13.50;3.88;;;17.20;65.40;;;;;;5065608;28;20032;-72
2022/06/10 04:13:28;;;;;;;10.80;3.72;;;17.20;65.50;;;;;;5061487;28;20039;-73
2022/06/10 04:15:55;;;;;;;10.50;3.92;;;17.10;65.20;;;;;;5067265;28;20033;-71
2022/06/10 04:18:22;;;;;;;11.02;3.67;;;17.10;65.30;;;;;;5048640;28;20120;-72
2022/06/10 04:20:48;;;;;;;10.93;4.00;;;17.20;65.40;;;;;;5066395;28;20131;-71
2022/06/10 04:23:14;;;;;;;13.05;3.95;;;17.10;65.30;;;;;;5067217;28;20067;-72
2022/06/10 04:25:40;;;;;;;12.18;3.65;;;17.10;65.30;;;;;;5027696;28;20056;-72
2022/06/10 04:28:07;;;;;;;14.07;5.05;;;17.10;65.40;;;;;;5059728;28;20484;-74
2022/06/10 04:30:37;;;;;;;9.13;2.63;;;17.10;65.40;;;;;;5064764;28;20028;-71
2022/06/10 04:33:04;;;;;;;11.98;3.20;;;17.10;65.40;;;;;;5068838;28;20499;-73
2022/06/10 04:35:34;;;;;;;11.70;3.95;;;17.10;65.40;;;;;;5065638;28;20052;-71
2022/06/10 04:38:02;;;;;;;19.15;5.53;;;17.10;65.40;;;;;;5065464;28;20029;-72
2022/06/10 04:40:31;;;;;;;11.90;3.72;;;17.10;65.40;;;;;;5065153;28;20037;-72
2022/06/10 04:42:58;;;;;;;10.35;3.28;;;17.10;65.40;;;;;;5079299;28;20074;-73
2022/06/10 04:45:27;;;;;;;11.88;3.50;;;17.20;65.60;;;;;;5052678;28;20037;-72
2022/06/10 04:47:56;;;;;;;11.85;4.10;;;17.10;65.40;;;;;;5058340;28;20059;-71
2022/06/10 04:50:27;;;;;;;13.02;3.90;;;17.20;65.50;;;;;;5060187;28;20475;-73
2022/06/10 04:52:55;;;;;;;15.57;4.80;;;17.10;65.30;;;;;;5062298;28;20060;-72
2022/06/10 04:55:22;;;;;;;11.82;3.17;;;17.20;65.50;;;;;;5060408;28;20036;-73
2022/06/10 04:57:48;;;;;;;12.07;3.55;;;17.20;65.40;;;;;;5064321;28;20037;-71
2022/06/10 05:00:20;;;;;;;10.02;3.30;;;17.20;65.40;;;;;;5055169;28;20395;-72
2022/06/10 05:02:46;;;;;;;14.90;4.45;;;17.20;65.40;;;;;;5064352;28;20028;-72
2022/06/10 05:05:12;;;;;;;13.60;3.55;;;17.20;65.30;;;;;;5049943;28;20480;-72
2022/06/10 05:07:39;;;;;;;14.63;5.72;;;17.20;65.30;;;;;;5059672;28;20604;-72
2022/06/10 05:10:05;;;;;;;13.38;3.72;;;17.20;65.30;;;;;;5059528;28;20025;-72
2022/06/10 05:12:33;;;;;;;14.43;4.68;;;17.20;65.30;;;;;;5062320;28;20024;-72
2022/06/10 05:14:59;;;;;;;11.55;3.97;;;17.20;65.20;;;;;;5023427;28;20059;-72
2022/06/10 05:17:24;;;;;;;8.48;3.42;;;17.20;65.20;;;;;;5069146;28;20415;-73
2022/06/10 05:19:50;;;;;;;9.40;2.95;;;17.30;65.40;;;;;;5060151;28;20036;-72
2022/06/10 05:22:16;;;;;;;11.30;3.33;;;17.30;65.30;;;;;;5062483;28;20111;-74
2022/06/10 05:24:42;;;;;;;11.43;3.33;;;17.30;65.30;;;;;;5042729;28;20536;-72
2022/06/10 05:27:09;;;;;;;13.25;3.85;;;17.30;65.20;;;;;;5061268;28;20032;-75
2022/06/10 05:29:36;;;;;;;12.23;3.78;;;17.40;65.40;;;;;;5061507;28;20111;-73
2022/06/10 05:32:02;;;;;;;11.07;3.22;;;17.40;65.40;;;;;;5065295;28;20024;-75
2022/06/10 05:34:46;;;;;;;12.65;4.05;;;17.40;65.30;;;;;;5063032;28;20447;-73
2022/06/10 05:37:19;;;;;;;10.18;3.50;;;17.40;65.20;;;;;;5035144;28;20035;-74
2022/06/10 05:39:45;;;;;;;14.68;5.05;;;17.50;65.30;;;;;;5063370;28;20372;-73
2022/06/10 05:42:12;;;;;;;11.05;4.32;;;17.50;65.20;;;;;;5062065;28;20085;-71
2022/06/10 05:44:40;;;;;;;11.65;3.53;;;17.50;65.20;;;;;;5065482;28;20040;-74
2022/06/10 05:47:13;;;;;;;13.18;4.95;;;17.50;65.00;;;;;;5053032;28;20021;-72
2022/06/10 05:49:42;;;;;;;7.07;2.80;;;17.60;65.20;;;;;;5063355;28;20048;-75
2022/06/10 05:52:10;;;;;;;10.73;3.90;;;17.70;65.30;;;;;;5065584;28;20461;-73
2022/06/10 05:54:42;;;;;;;16.17;5.38;;;17.70;65.20;;;;;;5063562;28;20037;-72
2022/06/10 05:57:09;;;;;;;13.45;3.67;;;17.80;65.30;;;;;;5057706;28;20369;-76
2022/06/10 05:59:35;;;;;;;12.98;4.03;;;17.80;65.20;;;;;;5065931;28;20562;-72
2022/06/10 06:02:05;;;;;;;12.85;3.72;;;17.90;65.60;;;;;;5041870;28;20074;-74
2022/06/10 06:04:32;;;;;;;11.68;3.13;;;18.00;66.80;;;;;;5061832;28;20033;-72
2022/06/10 06:06:58;;;;;;;10.07;3.65;;;18.20;67.70;;;;;;5046614;28;20136;-74
2022/06/10 06:09:29;;;;;;;11.55;4.32;;;18.30;68.10;;;;;;5064361;28;20391;-75
2022/06/10 06:11:56;;;;;;;15.07;3.97;;;18.50;68.60;;;;;;5043862;28;20051;-74
2022/06/10 06:14:25;;;;;;;12.75;4.28;;;18.70;69.00;;;;;;5050056;28;20491;-73
2022/06/10 06:16:55;;;;;;;16.80;4.30;;;18.90;69.40;;;;;;5066593;28;20021;-74
2022/06/10 06:19:22;;;;;;;15.35;5.95;;;19.10;69.70;;;;;;5062144;28;20468;-74
2022/06/10 06:21:48;;;;;;;14.35;4.72;;;19.30;70.00;;;;;;5049093;28;20141;-75
2022/06/10 06:24:15;;;;;;;11.55;4.25;;;19.50;70.10;;;;;;5069478;28;20043;-74
2022/06/10 06:26:41;;;;;;;11.40;4.13;;;19.70;70.30;;;;;;5065030;28;20033;-79
2022/06/10 06:29:07;;;;;;;13.00;4.13;;;20.00;70.40;;;;;;5060514;28;20062;-73
2022/06/10 06:31:33;;;;;;;12.63;4.30;;;20.30;70.10;;;;;;5062636;28;20025;-73
2022/06/10 06:33:59;;;;;;;14.85;4.82;;;20.70;70.10;;;;;;5070645;28;20036;-74
2022/06/10 06:36:27;;;;;;;19.88;5.70;;;21.20;69.80;;;;;;5060364;28;20033;-73
2022/06/10 06:38:53;;;;;;;16.10;5.25;;;21.80;69.00;;;;;;5065174;28;20044;-74
2022/06/10 06:41:21;;;;;;;17.80;5.00;;;22.30;67.50;;;;;;5062963;28;20028;-73
2022/06/10 06:43:49;;;;;;;19.40;5.22;;;22.70;66.20;;;;;;5065000;28;20032;-74
2022/06/10 06:46:17;;;;;;;19.77;5.38;;;23.00;65.00;;;;;;5055193;28;20038;-73
2022/06/10 06:48:44;;;;;;;19.20;5.10;;;23.20;64.10;;;;;;5064370;28;20040;-72
2022/06/10 06:51:10;;;;;;;17.63;4.95;;;23.50;63.40;;;;;;5028103;28;20299;-73
2022/06/10 06:53:36;;;;;;;18.80;4.85;;;23.80;63.00;;;;;;5045642;28;20036;-72
2022/06/10 06:56:05;;;;;;;16.13;5.40;;;24.00;62.30;;;;;;5059323;28;20021;-73
2022/06/10 06:58:32;;;;;;;18.95;6.70;;;24.20;61.80;;;;;;5054811;28;20067;-73
2022/06/10 07:00:58;;;;;;;19.42;6.03;;;24.50;61.60;;;;;;5059844;28;20086;-72
2022/06/10 07:03:25;;;;;;;21.67;5.20;;;24.70;61.20;;;;;;5028880;28;20082;-72
2022/06/10 07:05:53;;;;;;;16.67;4.82;;;25.00;61.50;;;;;;5046513;28;20493;-72
2022/06/10 07:08:19;;;;;;;23.48;5.82;;;25.10;60.30;;;;;;5051004;28;20020;-72
2022/06/10 07:10:46;;;;;;;14.38;4.40;;;25.40;59.70;;;;;;5062337;28;20029;-72
2022/06/10 07:13:12;;;;;;;24.60;5.43;;;25.70;59.10;;;;;;5049376;28;20036;-72
2022/06/10 07:15:41;;;;;;;18.25;4.30;;;25.90;58.50;;;;;;5051058;28;20059;-73
2022/06/10 07:18:07;;;;;;;20.48;5.47;;;26.10;57.80;;;;;;5041352;28;20017;-72
2022/06/10 07:20:36;;;;;;;21.17;5.18;;;26.20;57.40;;;;;;5064076;28;20542;-73
2022/06/10 07:23:04;;;;;;;20.23;4.80;;;26.20;57.30;;;;;;5065083;28;20024;-73
2022/06/10 07:25:31;;;;;;;18.27;5.10;;;26.20;57.70;;;;;;5064267;28;20461;-72
2022/06/10 07:27:58;;;;;;;17.27;5.53;;;26.10;57.60;;;;;;5065638;28;20071;-73
2022/06/10 07:30:29;;;;;;;15.23;4.30;;;26.10;57.50;;;;;;5064658;28;20055;-72
2022/06/10 07:32:57;;;;;;;16.20;5.32;;;26.20;56.90;;;;;;5065791;28;20036;-73
2022/06/10 07:35:25;;;;;;;16.65;5.25;;;26.20;56.60;;;;;;5063926;28;20047;-72
2022/06/10 07:37:51;;;;;;;19.80;5.38;;;26.10;56.30;;;;;;5072411;28;20491;-73
2022/06/10 07:43:05;;;;;;;15.73;5.03;;;26.00;55.80;;;;;;5064069;28;20026;-72
2022/06/10 07:45:31;;;;;;;17.90;4.57;;;26.30;55.80;;;;;;5064595;28;20040;-72
2022/06/10 07:47:57;;;;;;;12.80;4.20;;;26.60;54.60;;;;;;5063404;28;20049;-73
2022/06/10 07:50:23;;;;;;;18.55;4.35;;;27.00;53.90;;;;;;5020167;28;20060;-73
2022/06/10 07:52:50;;;;;;;15.35;4.50;;;27.60;52.80;;;;;;5037780;28;20138;-72
2022/06/10 07:55:20;;;;;;;19.42;6.00;;;27.70;52.00;;;;;;5058376;28;20058;-72
2022/06/10 07:57:46;;;;;;;16.13;4.55;;;27.20;52.00;;;;;;5030491;28;20127;-72
2022/06/10 08:00:14;;;;;;;13.27;4.45;;;26.70;52.70;;;;;;5056268;28;20036;-72
2022/06/10 08:02:41;;;;;;;17.65;5.72;;;26.30;53.50;;;;;;5062549;28;20139;-72
2022/06/10 08:05:11;;;;;;;22.02;5.47;;;26.10;54.10;;;;;;5064003;28;20044;-73
2022/06/10 08:07:37;;;;;;;23.58;6.07;;;26.00;54.30;;;;;;5053002;28;20711;-72
2022/06/10 08:10:06;;;;;;;22.45;5.43;;;25.90;54.60;;;;;;5053046;28;20036;-72
2022/06/10 08:12:34;;;;;;;20.55;6.03;;;25.90;54.70;;;;;;5040880;28;20075;-72
2022/06/10 08:14:59;;;;;;;16.70;5.35;;;26.00;54.80;;;;;;5064205;28;20569;-73
2022/06/10 08:17:25;;;;;;;23.67;5.32;;;25.90;54.70;;;;;;5062946;28;20036;-73
2022/06/10 08:19:51;;;;;;;20.40;5.80;;;25.80;54.70;;;;;;5063754;28;20039;-72
2022/06/10 08:22:32;;;;;;;11.23;3.35;;;25.70;54.60;;;;;;5038090;28;20029;-73
2022/06/10 08:24:59;;;;;;;13.00;4.30;;;25.50;54.70;;;;;;5058623;28;20115;-73
2022/06/10 08:27:25;;;;;;;13.10;3.97;;;25.30;55.00;;;;;;5064258;28;20036;-71
2022/06/10 08:29:52;;;;;;;13.35;4.20;;;25.30;55.20;;;;;;5064619;28;20013;-71
2022/06/10 08:32:18;;;;;;;16.20;4.68;;;25.20;55.20;;;;;;5039995;28;20037;-72
2022/06/10 08:34:45;;;;;;;17.50;5.82;;;25.30;55.20;;;;;;5061914;28;20051;-72
2022/06/10 08:37:12;;;;;;;14.75;4.82;;;25.30;55.20;;;;;;5053720;28;20044;-72
2022/06/10 08:39:39;;;;;;;8.68;3.85;;;25.50;55.00;;;;;;5062620;28;20064;-72
2022/06/10 08:42:19;;;;;;;12.57;4.57;;;25.70;54.80;;;;;;5064251;28;20021;-72
2022/06/10 08:44:51;;;;;;;10.30;4.50;;;25.90;54.40;;;;;;5061189;28;20036;-72
2022/06/10 08:47:44;;;;;;;11.40;4.38;;;26.20;54.20;;;;;;5060149;28;20028;-72
2022/06/10 08:51:09;;;;;;;11.90;4.57;;;26.40;53.90;;;;;;5060355;28;20032;-73
2022/06/10 08:53:54;;;;;;;14.00;4.38;;;26.80;53.50;;;;;;5065367;28;20288;-72
2022/06/10 08:56:33;;;;;;;10.57;3.97;;;27.10;53.20;;;;;;5033289;28;20039;-72
2022/06/10 08:59:12;;;;;;;8.80;4.25;;;27.40;52.90;;;;;;5040622;28;20024;-72
2022/06/10 09:02:00;;;;;;;9.20;2.90;;;27.70;52.40;;;;;;5060393;28;20098;-71
2022/06/10 09:04:56;;;;;;;7.22;3.05;;;27.90;52.00;;;;;;5038432;28;20365;-72
2022/06/10 09:07:36;;;;;;;11.18;4.00;;;28.20;51.60;;;;;;5062758;28;20043;-72
2022/06/10 09:10:07;;;;;;;7.88;3.13;;;28.50;51.40;;;;;;5065865;28;20361;-77
2022/06/10 09:13:04;;;;;;;9.02;3.53;;;28.70;51.20;;;;;;5057082;28;20124;-73
2022/06/10 09:15:32;;;;;;;8.60;3.35;;;28.90;50.70;;;;;;5063907;28;20069;-73
2022/06/10 09:18:04;;;;;;;6.80;2.92;;;29.10;50.50;;;;;;5059874;28;20262;-73
2022/06/10 09:20:44;;;;;;;6.75;3.00;;;29.30;50.70;;;;;;5066836;28;20036;-74
2022/06/10 09:23:18;;;;;;;8.68;4.10;;;29.50;49.80;;;;;;5067691;28;20032;-76
2022/06/10 09:25:47;;;;;;;10.15;3.17;;;29.70;49.60;;;;;;5065022;28;20040;-76
2022/06/10 09:28:14;;;;;;;9.73;3.33;;;29.80;49.40;;;;;;5065930;28;20040;-75
2022/06/10 09:30:44;;;;;;;8.88;3.50;;;30.00;49.20;;;;;;5067783;28;20044;-76
2022/06/10 09:34:01;;;;;;;8.23;3.20;;;30.20;49.00;;;;;;5058014;28;20025;-74
2022/06/10 09:36:29;;;;;;;7.45;2.83;;;30.30;48.30;;;;;;5021893;28;20566;-73
2022/06/10 09:40:35;;;;;;;6.97;3.00;;;30.70;48.50;;;;;;5061702;28;20063;-73
2022/06/10 09:42:08;;;;;;;7.65;3.17;;;30.90;48.20;;;;;;5062899;28;20520;-73
2022/06/10 09:44:52;;;;;;;8.13;3.53;;;31.00;47.80;;;;;;5058630;28;20120;-73
2022/06/10 09:47:39;;;;;;;6.65;3.28;;;31.20;47.70;;;;;;5056597;28;20117;-73
2022/06/10 09:50:21;;;;;;;7.68;2.75;;;31.30;47.60;;;;;;5063018;28;20392;-73
2022/06/10 09:53:01;;;;;;;8.07;2.60;;;31.30;47.40;;;;;;5044156;28;20340;-74
2022/06/10 09:55:34;;;;;;;8.05;2.58;;;31.40;47.40;;;;;;5063275;28;20048;-77
2022/06/10 09:58:12;;;;;;;6.75;2.83;;;31.40;47.40;;;;;;5065910;28;20120;-75
2022/06/10 10:00:57;;;;;;;8.00;2.95;;;31.50;47.10;;;;;;5043828;28;20041;-74
2022/06/10 10:03:39;;;;;;;6.53;2.05;;;31.70;46.90;;;;;;5044337;28;20090;-73
2022/06/10 10:06:32;;;;;;;6.75;2.35;;;31.70;46.50;;;;;;5058341;28;20028;-75
2022/06/10 10:09:01;;;;;;;;;;;31.80;46.40;;;;;;5062209;28;20033;-73
2022/06/10 10:11:48;;;;;;;9.65;3.42;;;31.80;46.90;;;;;;5066009;28;19993;-74
2022/06/10 10:14:37;;;;;;;7.60;3.35;;;31.70;46.90;;;;;;5062943;28;20036;-73
2022/06/10 10:17:03;;;;;;;5.63;2.58;;;31.50;46.60;;;;;;5029745;28;20036;-73
2022/06/10 10:19:29;;;;;;;5.00;2.83;;;31.30;47.00;;;;;;5049212;28;20514;-74
2022/06/10 10:22:26;;;;;;;7.18;2.70;;;31.20;47.20;;;;;;5062707;28;20102;-74
2022/06/10 10:24:52;;;;;;;6.57;2.50;;;31.20;47.10;;;;;;5061792;28;20481;-74
2022/06/10 10:27:25;;;;;;;6.40;2.78;;;31.20;47.10;;;;;;5064489;28;20031;-74
2022/06/10 10:29:58;;;;;;;5.80;2.72;;;31.40;47.00;;;;;;5046314;28;20029;-73
2022/06/10 10:32:29;;;;;;;5.82;2.33;;;31.60;46.70;;;;;;5043969;28;20315;-76
2022/06/10 10:35:03;;;;;;;4.50;1.80;;;31.80;46.40;;;;;;5066654;28;20047;-73
2022/06/10 10:37:33;;;;;;;5.80;2.42;;;31.80;46.20;;;;;;5047376;28;20039;-73
2022/06/10 10:40:14;;;;;;;4.90;2.40;;;32.00;46.20;;;;;;5070843;28;20043;-75
2022/06/10 10:42:44;;;;;;;5.28;1.90;;;32.20;45.80;;;;;;5065361;28;20033;-74
2022/06/10 10:45:33;;;;;;;5.65;2.47;;;32.50;45.70;;;;;;5053694;28;20414;-74
2022/06/10 10:48:09;;;;;;;4.50;2.03;;;32.70;45.30;;;;;;5066161;28;20094;-75
2022/06/10 10:50:39;;;;;;;6.20;2.22;;;32.90;45.20;;;;;;5066636;28;20032;-73
2022/06/10 10:53:35;;;;;;;5.82;2.58;;;33.10;44.90;;;;;;5064633;28;20048;-74
2022/06/10 10:56:02;;;;;;;5.53;1.90;;;33.30;44.60;;;;;;5046626;28;20044;-73
2022/06/10 10:58:33;;;;;;;5.38;2.13;;;33.50;44.50;;;;;;5067379;28;20024;-74
2022/06/10 11:03:56;;;;;;;5.88;1.80;;;33.90;43.90;;;;;;5059441;28;20032;-73
2022/06/10 11:06:24;;;;;;;4.35;2.03;;;34.00;43.70;;;;;;5068710;28;20032;-73
2022/06/10 11:09:14;;;;;;;4.45;1.83;;;33.90;43.40;;;;;;5067000;28;20059;-72
2022/06/10 11:11:43;;;;;;;5.95;2.35;;;33.80;43.60;;;;;;5064483;28;20032;-73
2022/06/10 11:14:25;;;;;;;4.47;1.80;;;33.50;44.00;;;;;;5037557;28;20017;-73
2022/06/10 11:17:13;;;;;;;3.63;1.50;;;33.30;44.20;;;;;;5068083;28;20068;-74
2022/06/10 11:19:47;;;;;;;4.50;2.50;;;33.20;44.40;;;;;;5061616;28;20036;-74
2022/06/10 11:22:20;;;;;;;4.78;2.00;;;33.00;44.50;;;;;;5065850;28;20449;-74
2022/06/10 11:24:50;;;;;;;4.18;1.83;;;32.90;44.70;;;;;;5062039;28;20103;-73
2022/06/10 11:27:18;;;;;;;5.63;2.63;;;33.00;44.80;;;;;;5051904;28;20316;-75
2022/06/10 11:30:14;;;;;;;3.80;1.98;;;33.20;44.50;;;;;;5067805;28;20028;-73
2022/06/10 11:32:49;;;;;;;4.72;1.80;;;33.30;44.20;;;;;;5060308;28;20028;-72
2022/06/10 11:35:23;;;;;;;5.78;1.88;;;33.30;44.20;;;;;;5043287;28;20566;-74
2022/06/10 11:37:56;;;;;;;4.40;1.88;;;33.10;44.20;;;;;;5049713;28;20032;-73
2022/06/10 11:40:55;;;;;;;4.95;2.15;;;32.90;44.50;;;;;;5048380;28;20028;-73
2022/06/10 11:43:39;;;;;;;3.50;1.52;;;32.80;44.70;;;;;;5057921;28;20070;-72
2022/06/10 11:46:27;;;;;;;3.63;1.65;;;32.90;44.90;;;;;;5043733;28;20040;-74
2022/06/10 11:48:53;;;;;;;4.15;1.48;;;32.80;44.80;;;;;;5036296;28;20280;-74
2022/06/10 11:52:13;;;;;;;4.45;1.60;;;32.60;45.60;;;;;;5071208;28;20391;-75
2022/06/10 11:55:14;;;;;;;3.60;1.65;;;32.40;45.00;;;;;;5041221;28;20040;-73
2022/06/10 12:00:43;;;;;;;5.97;2.28;;;32.20;45.40;;;;;;5065630;28;20035;-74
2022/06/10 12:03:23;;;;;;;3.78;1.80;;;32.10;45.30;;;;;;5065480;28;20042;-74
2022/06/10 12:06:05;;;;;;;4.53;1.73;;;31.90;45.30;;;;;;5068267;28;20098;-75
2022/06/10 12:08:44;;;;;;;6.32;2.13;;;31.80;45.50;;;;;;5064805;28;20804;-74
2022/06/10 12:11:10;;;;;;;4.47;1.70;;;31.70;45.50;;;;;;5041274;28;20110;-74
2022/06/10 12:13:42;;;;;;;4.78;2.35;;;31.60;45.60;;;;;;5066583;28;20033;-73
2022/06/10 12:16:09;;;;;;;;;;;31.50;45.70;;;;;;5063829;28;20115;-74
2022/06/10 12:18:42;;;;;;;5.68;1.70;;;31.50;45.90;;;;;;5075417;28;19908;-75
2022/06/10 12:21:19;;;;;;;4.88;2.13;;;31.50;45.90;;;;;;5083239;28;20039;-73
2022/06/10 12:23:47;;;;;;;5.35;1.90;;;31.60;45.80;;;;;;5075806;28;20071;-73
2022/06/10 12:26:36;;;;;;;2.90;1.98;;;31.80;45.80;;;;;;5068474;28;20028;-73
2022/06/10 12:29:12;;;;;;;3.47;1.50;;;32.00;45.50;;;;;;5072790;28;20089;-73
2022/06/10 12:31:47;;;;;;;4.35;1.92;;;32.10;45.50;;;;;;5074949;28;20028;-76
2022/06/10 12:34:34;;;;;;;5.60;1.80;;;32.40;45.50;;;;;;5076323;28;20036;-75
2022/06/10 12:37:05;;;;;;;4.20;1.90;;;32.80;45.00;;;;;;5057981;28;20027;-74
2022/06/10 12:39:47;;;;;;;3.63;1.58;;;33.30;44.70;;;;;;5050769;28;20068;-73
2022/06/10 12:42:20;;;;;;;9.00;2.33;;;33.50;44.30;;;;;;5082004;28;20016;-74
2022/06/10 12:44:53;;;;;;;4.63;1.95;;;33.70;44.10;;;;;;5082520;28;20115;-72
2022/06/10 12:47:27;;;;;;;4.47;1.90;;;34.00;43.80;;;;;;5074148;28;20024;-75
2022/06/10 12:50:00;;;;;;;5.47;1.85;;;34.50;43.50;;;;;;5048022;28;20053;-73
2022/06/10 12:52:36;;;;;;;3.90;1.77;;;34.90;43.00;;;;;;5038708;28;20025;-73
2022/06/10 12:55:45;;;;;;;4.82;2.10;;;35.10;42.60;;;;;;5048367;28;20029;-74
2022/06/10 12:58:37;;;;;;;4.28;1.83;;;35.20;42.60;;;;;;4961276;28;20391;-73
2022/06/10 13:01:21;;;;;;;4.07;1.50;;;35.40;42.40;;;;;;4946213;28;20034;-75
2022/06/10 13:03:53;;;;;;;3.88;1.90;;;35.60;42.30;;;;;;5035946;28;20041;-73
2022/06/10 13:06:22;;;;;;;;;;;35.80;42.10;;;;;;5034468;28;20047;-74
2022/06/10 13:08:51;;;;;;;4.35;1.83;;;35.90;42.10;;;;;;5026318;28;19948;-73
2022/06/10 13:11:35;;;;;;;4.50;1.63;;;35.80;42.10;;;;;;5041017;28;20103;-73
2022/06/10 13:14:22;;;;;;;3.50;1.52;;;35.70;42.00;;;;;;5052139;28;20032;-72
2022/06/10 13:16:59;;;;;;;4.80;1.60;;;35.50;42.10;;;;;;5046062;28;20063;-73
2022/06/10 13:19:41;;;;;;;4.72;2.10;;;35.40;42.20;;;;;;5043594;28;20063;-74
2022/06/10 13:22:19;;;;;;;5.38;1.85;;;35.30;42.40;;;;;;5045360;28;20141;-73
2022/06/10 13:24:54;;;;;;;4.82;1.52;;;35.40;42.30;;;;;;5035323;28;20084;-74
2022/06/10 13:27:29;;;;;;;6.07;1.80;;;35.50;42.30;;;;;;5056510;28;20458;-73